Flight Track Log - Related Links

Times and Time Zones

All times are in EDT time to prevent confusion due to time zone crossing. See the SKW6306 flight status page for this flight to view local times or setup timezone preferences in your user account.


Time Position Orientation Groundspeed Altitude Reporting Facility
EDT Latitude Longitude Course Direction KTS MPH feet Rate Location/Type
Sat 04:42:03 PM 52.1333 -106.8333 223° Southwest 210 242 5,200  Level Winnipeg Center
Sat 04:43:00 PM 51.8372 -106.8798 199° South  Level FlightAware Approximate
Sat 04:43:03 PM 52.0500 -106.8667 194° South 290 334 7,000  Level Winnipeg Center
Sat 04:44:00 PM 51.7256 -106.9373 197° South  Level FlightAware Approximate
Sat 04:44:03 PM 51.9667 -106.9000 194° South 290 334 9,900  Level Winnipeg Center
Sat 04:45:00 PM 51.6134 -106.9866 212° Southwest  Level FlightAware Approximate
Sat 04:45:03 PM 51.9000 -106.9500 205° Southwest 320 368 11,600  Level Winnipeg Center
Sat 04:46:00 PM 51.5038 -107.0515 198° South  Level FlightAware Approximate
Sat 04:46:03 PM 51.8000 -107.0000 197° South 330 380 13,600  Level Winnipeg Center
Sat 04:47:03 PM 51.7000 -107.0333 192° South 340 391 14,800 1,350 Climbing Winnipeg Center
Sat 04:48:03 PM 51.6167 -107.0667 194° South 350 403 16,300 1,450 Climbing Winnipeg Center
Sat 04:49:03 PM 51.5333 -107.1333 206° Southwest 350 403 17,700 1,500 Climbing Winnipeg Center
Sat 04:50:03 PM 51.4167 -107.1833 195° South 360 414 19,300 1,400 Climbing Winnipeg Center
Sat 04:51:03 PM 51.3333 -107.2167 194° South 370 426 20,500 1,200 Climbing Winnipeg Center
Sat 04:52:03 PM 51.2333 -107.2833 203° Southwest 380 437 21,700 1,100 Climbing Winnipeg Center
Sat 04:53:03 PM 51.1333 -107.3167 192° South 380 437 22,700 1,000 Climbing Winnipeg Center
Sat 04:54:03 PM 51.0167 -107.3667 195° South 390 449 23,700 1,000 Climbing Winnipeg Center
Sat 04:55:03 PM 50.9167 -107.4167 197° South 390 449 24,700 1,000 Climbing Winnipeg Center
Sat 04:56:03 PM 50.8000 -107.4833 200° South 390 449 25,700 800 Climbing Winnipeg Center
Sat 04:57:03 PM 50.7167 -107.5167 194° South 390 449 26,300 600 Climbing Winnipeg Center
Sat 04:58:03 PM 50.6000 -107.5667 195° South 400 460 26,900 550 Climbing Winnipeg Center
Sat 04:59:03 PM 50.4833 -107.6167 195° South 410 472 27,400 600 Climbing Winnipeg Center
Sat 05:00:03 PM 50.3667 -107.6667 195° South 420 483 28,100 700 Climbing Winnipeg Center
Sat 05:01:03 PM 50.2667 -107.7167 198° South 420 483 28,800 750 Climbing Winnipeg Center
Sat 05:02:03 PM 50.1333 -107.7500 189° South 420 483 29,600 650 Climbing Winnipeg Center
Sat 05:03:03 PM 50.0333 -107.7500 180° South 420 483 30,100 500 Climbing Winnipeg Center
Sat 05:04:03 PM 49.9167 -107.7833 190° South 420 483 30,600 550 Climbing Winnipeg Center
Sat 05:05:03 PM 49.8000 -107.7667 175° South 420 483 31,200 600 Climbing Winnipeg Center
Sat 05:06:03 PM 49.6833 -107.8000 190° South 420 483 31,800 600 Climbing Winnipeg Center
Sat 05:07:03 PM 49.5667 -107.8000 180° South 420 483 32,400 555 Climbing Winnipeg Center
Sat 05:08:02 PM 49.4667 -107.8333 192° South 410 472 32,900 303 Climbing Winnipeg Center
Sat 05:09:02 PM 49.3500 -107.8333 180° South 410 472 33,000 50 Climbing Winnipeg Center
Sat 05:10:02 PM 49.2167 -107.8500 185° South 420 483 33,000  Level Winnipeg Center
Sat 05:11:02 PM 49.1000 -107.8500 180° South 430 495 33,000  Level Winnipeg Center
Sat 05:12:02 PM 48.9833 -107.8667 185° South 440 506 33,000  Level Winnipeg Center
Sat 05:13:02 PM 48.8667 -107.8667 180° South 440 506 33,000  Level Winnipeg Center
Sat 05:13:59 PM 48.7808 -107.8633 179° South 439 505 33,000 -50 Level Salt Lake Center
Sat 05:15:01 PM 48.6572 -107.8761 184° South 443 510 32,900  Descending Salt Lake Center
Sat 05:16:03 PM 48.5350 -107.8903 184° South 442 509 33,000 48 Climbing Salt Lake Center
Sat 05:17:05 PM 48.3917 -107.9061 184° South 437 503 33,000  Level Salt Lake Center
Sat 05:18:06 PM 48.2683 -107.9189 184° South 440 506 33,000  Level Salt Lake Center
Sat 05:19:08 PM 48.1481 -107.9314 184° South 439 505 33,000  Level Salt Lake Center
Sat 05:20:10 PM 48.0322 -107.9450 184° South 427 491 33,000  Level Salt Lake Center
Sat 05:21:12 PM 47.9125 -107.9503 182° South 430 495 33,000  Level Salt Lake Center
Sat 05:22:14 PM 47.7897 -107.9125 168° South 447 514 33,000  Level Salt Lake Center
Sat 05:23:15 PM 47.6689 -107.8772 169° South 444 511 33,000  Level Salt Lake Center
Sat 05:24:17 PM 47.5233 -107.8353 169° South 445 512 33,000  Level Salt Lake Center
Sat 05:25:19 PM 47.4039 -107.7989 168° South 446 513 33,000  Level Salt Lake Center
Sat 05:26:21 PM 47.2878 -107.7661 169° South 445 512 33,000  Level Salt Lake Center
Sat 05:27:23 PM 47.1514 -107.7256 169° South 446 513 33,000  Level Salt Lake Center
Sat 05:28:24 PM 47.0350 -107.6936 169° South 445 512 33,000  Level Salt Lake Center
Sat 05:29:26 PM 46.8994 -107.6542 169° South 446 513 33,000  Level Salt Lake Center
Sat 05:30:28 PM 46.7831 -107.6206 169° South 445 512 33,000  Level Salt Lake Center
Sat 05:31:30 PM 46.6475 -107.5842 170° South 445 512 33,000  Level Salt Lake Center
Sat 05:32:32 PM 46.5306 -107.5494 168° South 446 513 33,000  Level Salt Lake Center
Sat 05:33:34 PM 46.3969 -107.5117 169° South 440 506 33,000  Level Salt Lake Center
Sat 05:34:35 PM 46.2833 -107.4800 169° South 434 499 33,000  Level Salt Lake Center
Sat 05:35:37 PM 46.1708 -107.4483 169° South 431 496 33,000  Level Salt Lake Center
Sat 05:36:39 PM 46.0411 -107.4125 169° South 425 489 33,000  Level Salt Lake Center
Sat 05:37:41 PM 45.9294 -107.3828 170° South 425 489 33,000  Level Salt Lake Center
Sat 05:38:43 PM 45.7992 -107.3469 169° South 427 491 33,000  Level Salt Lake Center
Sat 05:39:45 PM 45.6875 -107.3167 169° South 426 490 33,000  Level Salt Lake Center
Sat 05:40:47 PM 45.5567 -107.2808 169° South 427 491 33,000  Level Salt Lake Center
Sat 05:41:48 PM 45.4436 -107.2500 169° South 430 495 33,000  Level Salt Lake Center
Sat 05:42:50 PM 45.3308 -107.2178 169° South 430 495 33,000  Level Salt Lake Center
Sat 05:43:52 PM 45.2017 -107.1861 170° South 425 489 33,000  Level Salt Lake Center
Sat 05:44:54 PM 45.0900 -107.1542 169° South 424 488 33,000  Level Salt Lake Center
Sat 05:45:56 PM 44.9583 -107.1197 170° South 428 493 33,000  Level Salt Lake Center
Sat 05:46:58 PM 44.8458 -107.0906 170° South 428 493 33,000  Level Salt Lake Center
Sat 05:47:59 PM 44.7150 -107.0556 169° South 428 493 33,000  Level Salt Lake Center
Sat 05:49:02 PM 44.6017 -107.0269 170° South 430 495 33,000  Level Salt Lake Center
Sat 05:50:03 PM 44.4883 -106.9986 170° South 431 496 33,000  Level Salt Lake Center
Sat 05:51:05 PM 44.3558 -106.9639 169° South 432 497 33,000  Level Salt Lake Center
Sat 05:52:07 PM 44.2436 -106.9367 170° South 429 494 33,000  Level Salt Lake Center
Sat 05:53:08 PM 44.1139 -106.9008 169° South 430 495 33,000  Level Salt Lake Center
Sat 05:53:31 PM 44.0764 -106.8911 169° South 430 495 33,000  Level Denver Center
Sat 05:54:10 PM 44.0011 -106.8722 170° South 430 495 33,000  Level Salt Lake Center
Sat 05:55:12 PM 43.8842 -106.8469 171° South 438 504 33,000  Level Salt Lake Center
Sat 05:55:34 PM 43.8317 -106.8283 166° South 428 493 33,000  Level Denver Center
Sat 05:56:36 PM 43.7183 -106.7997 170° South 433 498 33,000  Level Denver Center
Sat 05:57:38 PM 43.5886 -106.7678 170° South 426 490 33,000  Level Denver Center
Sat 05:58:40 PM 43.4772 -106.7375 169° South 426 490 33,000  Level Denver Center
Sat 05:59:41 PM 43.3472 -106.7053 170° South 426 490 33,000  Level Denver Center
Sat 06:00:43 PM 43.2372 -106.6781 170° South 421 484 33,000  Level Denver Center
Sat 06:01:45 PM 43.1250 -106.6506 170° South 425 489 33,000  Level Denver Center
Sat 06:02:46 PM 42.9964 -106.6192 170° South 422 486 33,000  Level Denver Center
Sat 06:03:48 PM 42.8850 -106.5911 170° South 424 488 33,000  Level Denver Center
Sat 06:04:50 PM 42.7553 -106.5589 170° South 424 488 33,000  Level Denver Center
Sat 06:05:52 PM 42.6442 -106.5306 169° South 425 489 33,000  Level Denver Center
Sat 06:06:53 PM 42.5192 -106.4631 158° South 437 503 33,000  Level Denver Center
Sat 06:07:55 PM 42.4136 -106.3967 155° Southeast 438 504 33,000  Level Denver Center
Sat 06:08:57 PM 42.2881 -106.3206 156° South 442 509 33,000  Level Denver Center
Sat 06:09:58 PM 42.1819 -106.2544 155° Southeast 440 506 33,000  Level Denver Center
Sat 06:11:00 PM 42.0744 -106.1881 155° Southeast 444 511 33,000  Level Denver Center
Sat 06:12:02 PM 41.9494 -106.1117 156° South 443 510 33,000  Level Denver Center
Sat 06:13:04 PM 41.8425 -106.0458 155° Southeast 444 511 33,000  Level Denver Center
Sat 06:14:05 PM 41.7183 -105.9703 156° South 440 506 33,000  Level Denver Center
Sat 06:15:19 PM 41.6119 -105.9056 156° South 440 506 33,000  Level Denver Center
Sat 06:16:21 PM 41.4667 -105.8706 170° South 417 480 33,000  Level Denver Center
Sat 06:17:23 PM 41.3567 -105.8469 171° South 418 481 33,000  Level Denver Center
Sat 06:18:24 PM 41.2289 -105.8228 172° South 417 480 33,000  Level Denver Center
Sat 06:19:26 PM 41.1194 -105.8011 172° South 416 479 33,000  Level Denver Center
Sat 06:20:28 PM 40.9886 -105.7767 172° South 416 479 33,000  Level Denver Center
Sat 06:21:29 PM 40.8767 -105.7739 179° South 404 465 33,000 -1,024 Level Denver Center
Sat 06:22:31 PM 40.7728 -105.8222 199° South 399 459 30,900 -2,081 Descending Denver Center
Sat 06:23:33 PM 40.6742 -105.8842 205° Southwest 396 456 28,700 -2,488 Descending Denver Center
Sat 06:24:34 PM 40.5744 -105.9494 206° Southwest 400 460 25,800 -2,976 Descending Denver Center
Sat 06:25:36 PM 40.4775 -106.0186 208° Southwest 398 458 22,600 -3,366 Descending Denver Center
Sat 06:26:37 PM 40.3900 -106.0769 207° Southwest 359 413 18,900 -2,732 Descending Denver Center
Sat 06:27:39 PM 40.2786 -106.0683 177° South 360 414 17,000 -919 Descending Denver Center
Sat 06:28:41 PM 40.2353 -105.9647 119° Southeast 336 387 17,000  Level Denver Center
Sat 06:29:42 PM 40.2389 -105.8336 88° East 353 406 17,000  Level Denver Center
Sat 06:30:56 PM 40.2411 -105.6819 89° East 350 403 17,000  Level Denver Center
Sat 06:31:58 PM 40.2442 -105.5514 88° East 357 411 17,000  Level Denver Center
Sat 06:32:59 PM 40.2458 -105.4078 89° East 374 430 17,000 -98 Level Denver Center
Sat 06:34:01 PM 40.2428 -105.2667 92° East 368 423 16,800 -683 Descending Denver Center
Sat 06:35:02 PM 40.1842 -105.1664 127° Southeast 354 407 15,600 -976 Descending Denver Center
Sat 06:36:04 PM 40.1225 -105.0719 130° Southeast 342 394 14,800 -774 Descending Denver Center
Sat 06:37:06 PM 40.0600 -104.9756 130° Southeast 325 374 14,000 -780 Descending Denver Center
Sat 06:38:07 PM 40.0025 -104.8850 130° Southeast 324 373 13,200 -878 Descending Denver Center
Sat 06:39:09 PM 39.9386 -104.8106 138° Southeast 311 358 12,200 -1,073 Descending Denver Center
Sat 06:40:10 PM 39.8494 -104.8094 179° South 300 345 11,000 -585 Descending Denver Center
Sat 06:41:12 PM 39.7792 -104.8106 181° South 248 285 11,000 -98 Level Denver Center
Sat 06:42:13 PM 39.7136 -104.8114 181° South 239 275 10,800 -732 Descending Denver Center
Sat 06:43:15 PM 39.6489 -104.7942 168° South 238 274 9,500 -1,220 Descending Denver Center
Sat 06:44:16 PM 39.6789 -104.7328 58° Northeast 232 267 8,300 -1,180 Descending Denver Center

Login

Don't have an account? Register now (free) for customized features, flight alerts, and more!